Date,TemperatureHighF,TemperatureAvgF,TemperatureLowF,DewpointHighF,DewpointAvgF,DewpointLowF,HumidityHigh,HumidityAvg,HumidityLow,PressureMaxIn,PressureMinIn,WindSpeedMaxMPH,WindSpeedAvgMPH,GustSpeedMaxMPH,PrecipitationSumIn
2013-1-1,38.1,31.8,20.6,13.9,5.8,-65.4,45,33,23,29.91,29.65,17,4,44,0.00
2013-1-2,147.5,23.4,16.0,-0.4,-5.4,-67.4,39,28,1,30.06,29.00,22,6,342,0.00
2013-1-3,30.0,14.7,9.7,9.8,-16.3,-72.3,100,24,1,30.12,30.00,87,7,87,0.00
2013-1-4,38.1,32.5,29.5,11.9,8.7,5.6,38,36,32,29.86,29.74,19,5,19,0.00
2013-1-5,45.3,32.6,23.0,10.1,6.9,0.6,52,35,19,30.21,29.77,25,5,26,0.00
2013-1-6,45.7,33.1,24.4,23.8,16.1,6.6,61,50,35,30.15,29.80,16,4,17,0.00
2013-1-7,48.9,33.3,22.3,16.9,10.8,3.6,60,41,19,30.36,29.88,23,4,24,0.00
2013-1-8,48.0,32.7,18.7,20.4,13.0,2.4,52,45,31,30.36,30.15,27,5,30,0.00
2013-1-9,46.6,36.0,22.6,27.3,18.2,6.9,56,48,36,30.33,29.94,22,5,24,0.00
2013-1-10,50.9,40.1,28.4,21.7,10.0,2.0,47,30,16,30.48,30.00,28,5,30,0.00
2013-1-11,43.0,33.5,24.2,30.0,15.5,8.1,63,48,34,30.45,30.06,10,3,10,0.00
2013-1-12,48.5,45.0,41.3,35.9,32.2,29.3,67,61,58,30.09,30.00,7,2,11,0.00
2013-1-13,51.2,46.1,42.4,39.1,34.6,29.7,73,64,57,30.09,29.91,10,3,15,0.00
2013-1-14,62.2,48.7,35.9,45.1,30.8,12.7,80,53,24,30.18,29.83,18,4,18,0.00
2013-1-15,43.0,37.6,33.6,22.3,16.3,10.4,60,43,31,30.24,30.06,9,2,16,0.00
2013-1-16,38.6,34.5,32.0,23.6,20.3,10.9,65,56,33,30.15,29.68,11,2,11,0.00
2013-1-17,34.5,34.5,34.5,22.4,22.4,22.4,61,61,61,29.77,29.77,1,1,1,0.00
2013-1-18,34.5,29.1,16.5,22.4,8.9,-32.7,61,47,7,30.45,29.77,13,2,13,0.00
2013-1-19,45.8,37.2,16.7,23.6,14.5,-3.8,50,39,29,30.36,29.77,42,11,43,0.00
2013-1-20,53.8,42.3,28.2,23.2,10.3,-23.7,48,30,5,29.91,29.50,41,8,44,0.00
2013-1-21,32.5,27.1,21.2,14.5,-2.2,-17.2,56,30,13,30.06,29.65,23,6,23,0.00
2013-1-22,29.5,20.4,12.4,11.3,-16.5,-54.4,56,24,3,30.06,29.65,27,5,27,0.00
2013-1-23,21.7,12.1,7.1,-19.4,-26.7,-40.0,25,16,7,30.15,30.00,34,5,37,0.00
2013-1-24,24.1,12.1,3.5,-16.5,-30.8,-61.2,32,16,2,30.24,30.00,36,7,39,0.00
2013-1-25,30.0,18.1,9.8,2.2,-24.5,-54.9,46,17,3,30.33,29.94,31,6,33,0.00
2013-1-26,30.2,18.3,10.0,0.6,-10.3,-21.7,50,29,12,30.24,29.91,19,4,25,0.00
2013-1-27,38.3,22.1,11.8,-8.2,-23.0,-89.9,36,16,1,30.45,30.18,23,6,23,0.00
2013-1-28,35.6,26.8,16.5,21.0,4.7,-22.1,64,41,11,30.42,29.88,19,4,19,0.00
2013-1-29,47.5,36.7,31.4,27.0,20.6,15.3,63,52,40,30.12,29.88,17,2,17,0.00
2013-1-30,56.5,49.0,36.1,51.2,40.5,20.5,91,73,51,30.06,29.38,37,9,37,0.00
2013-1-31,58.3,46.6,30.0,53.0,22.3,-7.9,89,45,13,29.62,28.91,57,12,59,0.00
2013-2-1,33.6,26.9,20.5,2.3,-8.1,-20.2,32,21,10,30.09,29.56,31,4,31,0.00
2013-2-2,32.2,23.9,13.8,5.0,-5.4,-12.6,43,28,18,30.21,29.94,36,8,36,0.00
2013-2-3,39.4,27.0,18.7,8.1,2.5,-4.9,52,36,19,30.00,29.62,17,4,17,0.00
2013-2-4,35.6,25.2,19.9,2.7,-8.3,-19.5,45,25,11,29.91,29.65,25,4,26,0.00
2013-2-5,51.6,26.6,22.8,11.4,2.4,-62.1,53,37,1,29.97,29.80,141,4,141,0.00
2013-2-6,45.3,32.0,25.3,15.3,2.4,-59.6,52,31,8,30.24,29.77,20,3,20,0.00
2013-2-7,84.7,27.1,18.7,0.0,-14.6,-89.7,28,16,1,30.66,30.18,31,6,92,0.00
2013-2-8,143.9,29.9,25.1,23.1,15.2,-59.6,71,56,23,30.39,29.41,35,10,100,0.00
2013-2-15,50.9,43.2,37.0,28.6,24.3,20.5,60,48,37,29.94,29.77,23,6,23,0.00
2013-2-16,39.2,35.5,29.8,23.8,16.5,5.2,55,46,29,29.86,29.59,12,4,17,0.00
2013-2-17,30.0,22.4,15.1,12.4,-10.0,-26.8,55,26,9,29.77,29.35,41,7,42,0.00
2013-2-18,36.5,22.4,13.8,-6.3,-27.2,-91.4,30,15,1,30.12,29.68,30,7,33,0.00
2013-2-19,47.1,35.1,17.6,37.3,15.4,-8.1,76,46,22,30.15,29.47,26,5,27,0.00
2013-2-20,39.9,31.3,23.7,27.7,0.3,-13.8,62,29,12,29.80,29.50,22,5,30,0.00
2013-2-21,127.2,25.8,21.4,0.9,-6.2,-82.6,36,26,1,30.80,29.00,112,4,216,0.00
2013-2-22,129.0,32.1,22.1,99.9,-0.2,-78.0,97,29,1,32.00,27.30,249,-4,285,0.00
2013-2-23,139.3,34.9,30.0,24.2,12.5,-89.2,65,47,1,30.97,22.00,234,1,285,0.00
2013-2-24,143.0,35.5,30.0,27.7,20.3,-77.7,64,58,1,29.83,22.70,51,4,353,0.00
2013-2-25,113.3,36.1,17.6,41.3,10.2,-79.7,100,39,1,32.60,22.00,198,-1,353,0.00
2013-2-26,129.9,36.4,30.0,89.5,11.8,-82.6,56,39,1,34.12,21.00,211,0,211,0.00
2013-2-27,113.7,39.3,30.0,33.4,23.0,-76.0,70,60,1,30.03,21.50,222,5,91016,0.00
2013-2-28,134.4,40.1,30.0,39.5,21.6,-87.9,65,53,1,29.59,20.44,110,-2,145,0.00
2013-3-1,129.4,39.5,30.0,23.4,12.3,-77.6,57,37,1,29.65,21.45,125,4,110,0.00
2013-3-2,40.8,36.3,33.4,16.0,11.5,9.2,43,36,29,29.65,29.53,16,3,17,0.00
2013-3-3,39.5,33.0,28.7,13.7,9.9,5.7,49,38,26,29.62,29.47,14,4,17,0.00
2013-3-4,43.5,32.3,26.6,9.1,6.2,2.5,42,33,22,29.74,29.53,27,6,29,0.00
2013-3-5,54.1,38.1,28.0,15.4,9.1,4.5,40,31,17,29.97,29.65,17,4,21,0.00
2013-3-6,43.0,37.4,34.0,26.8,20.2,13.0,59,50,39,29.97,29.77,40,8,41,0.00
2013-3-7,40.3,34.5,30.5,20.6,16.8,12.9,60,49,37,29.94,29.77,28,8,30,0.00
2013-3-8,37.2,32.9,30.0,21.3,18.0,9.7,62,55,34,30.03,29.77,19,5,22,0.00
2013-3-9,59.9,42.0,30.0,12.0,-11.0,-83.4,46,19,1,30.30,29.97,20,4,20,0.00
2013-3-10,57.4,37.0,24.4,22.5,16.1,8.1,55,44,18,30.33,30.15,20,6,21,0.00
2013-3-11,51.2,42.5,35.4,32.3,26.9,-59.6,63,54,46,30.24,30.00,22,5,22,0.00
2013-3-12,52.5,48.9,42.8,45.6,38.2,28.0,79,67,55,30.06,29.62,28,7,30,0.00
2013-3-13,55.0,42.7,34.7,31.8,10.8,-10.2,62,31,8,29.74,29.59,21,4,22,0.00
2013-3-14,38.1,31.3,27.1,15.5,0.2,-60.6,54,28,1,29.80,29.65,29,4,29,0.00
2013-3-15,83.6,32.8,24.8,15.3,-4.3,-59.6,43,22,1,29.86,29.56,26,5,28,0.00
2013-3-16,46.4,35.5,29.1,13.2,-8.3,-86.7,43,23,1,29.80,29.59,16,3,17,0.00
2013-3-17,39.9,32.0,25.5,13.4,-20.8,-89.1,44,16,1,30.24,29.74,24,4,27,0.00
2013-3-18,42.2,29.6,21.4,19.9,-17.1,-91.0,66,20,1,30.39,27.00,235,6,238,0.00
2013-3-19,42.1,34.0,29.6,27.5,21.9,-59.6,67,61,52,30.09,29.47,28,7,28,0.00
2013-3-20,47.5,34.4,27.7,19.1,2.6,-59.6,57,29,9,29.77,29.60,27,4,27,0.00
2013-3-21,46.2,33.7,29.5,13.4,5.9,-59.6,46,32,1,29.77,29.50,20,3,20,0.00
2013-3-22,110.6,33.4,24.4,6.5,-3.8,-59.6,34,21,1,29.77,29.00,102,4,96,0.00
2013-3-23,64.6,36.6,29.6,9.3,-1.3,-59.6,38,22,1,29.80,0.00,66,6,204,0.00
2013-3-24,53.8,41.5,29.3,5.3,-2.0,-11.4,34,18,7,29.80,29.59,19,4,21,0.00
2013-3-25,49.6,49.6,49.6,-7.4,-7.4,-7.4,9,9,9,29.59,29.59,4,4,4,0.00
2013-3-26,49.6,49.6,49.6,-7.4,-7.4,-7.4,9,9,9,29.59,29.59,4,4,4,0.00
2013-3-27,49.6,49.6,49.6,-7.4,-7.4,-7.4,9,9,9,29.59,29.59,4,4,4,0.00
2013-3-28,49.6,49.6,49.6,-7.4,-7.4,-7.4,9,9,9,29.59,29.59,4,4,4,0.00
2013-3-29,49.6,49.6,49.6,-7.4,-7.4,-7.4,9,9,9,29.59,29.59,4,4,4,0.00
2013-3-30,49.6,49.6,49.6,-7.4,-7.4,-7.4,9,9,9,29.59,29.59,4,4,4,0.00
2013-6-17,85.8,72.6,61.9,53.1,49.4,41.6,65,46,30,29.88,29.68,15,4,15,0.00
2013-6-18,84.7,68.6,58.4,56.7,48.7,41.7,62,50,27,29.88,29.68,12,2,13,0.00
2013-6-19,61.9,60.0,56.6,47.0,42.6,38.6,59,53,51,29.86,29.74,9,1,9,0.00
2013-6-20,60.1,60.1,60.1,42.2,42.2,42.2,52,52,52,29.83,29.83,1,1,1,0.00
2013-8-1,79.3,70.5,65.1,52.7,50.0,42.7,61,49,29,29.94,29.74,17,4,17,0.00
2013-8-2,88.3,74.8,66.0,56.1,50.2,39.5,64,45,22,29.86,29.65,15,2,15,0.00
2013-8-3,80.8,70.2,63.3,54.7,51.1,46.2,61,51,38,29.83,29.68,13,2,13,0.00
2013-8-4,85.3,70.3,58.8,47.7,41.5,29.6,61,38,16,29.86,29.65,10,2,11,0.00
2013-8-5,83.5,66.7,53.8,43.6,31.3,1.1,55,33,5,30.00,29.77,12,2,13,0.00
2013-8-6,80.2,65.9,50.5,45.4,37.3,22.5,56,38,14,30.12,29.91,12,2,13,0.00
2013-8-7,79.7,67.4,56.6,52.5,45.2,-59.6,58,46,28,30.12,29.97,14,3,14,0.00
2013-8-8,138.7,72.0,30.0,99.9,57.1,-59.6,100,61,1,30.40,24.10,13,4,207,0.00
2013-8-9,76.1,72.4,30.0,67.6,63.2,-59.6,85,74,1,30.00,29.65,23,5,23,0.00
2013-8-10,106.1,75.1,30.0,61.8,48.4,-59.6,71,42,1,30.40,25.30,87,2,87,0.00
2013-8-11,85.3,68.8,30.0,45.7,35.9,-59.6,56,34,1,30.03,29.00,12,2,14,0.00
2013-8-12,88.9,72.0,59.9,52.0,45.2,-59.6,58,41,15,29.97,29.10,10,2,128,0.00
2013-8-13,81.5,69.5,63.1,59.1,53.4,-59.6,68,57,39,29.86,29.56,18,2,18,0.00
2013-8-14,79.0,67.6,60.2,52.5,38.5,-59.6,60,37,1,29.91,29.56,15,2,16,0.00
2013-8-15,82.4,66.1,30.0,43.4,35.0,-59.6,57,36,1,33.30,0.00,20,2,20,0.00
2013-8-16,86.3,68.2,54.8,46.0,37.9,-59.6,58,37,11,30.15,29.94,11,2,11,0.00
2013-8-17,91.0,70.6,54.1,47.5,40.0,-59.6,57,38,8,30.21,30.03,166,2,166,0.00
2013-8-18,82.7,68.1,59.3,51.6,45.9,-31.0,61,47,25,30.21,29.97,6,2,6,0.00
2013-8-19,91.7,71.1,30.7,53.2,46.2,-59.6,59,43,24,30.03,27.70,19,1,18,0.00
2013-8-20,93.4,75.4,62.0,52.6,46.2,-59.6,61,40,15,30.03,29.80,11,-2,135,0.00
2013-8-21,94.3,75.6,30.0,53.2,46.3,-59.6,58,39,1,30.06,29.00,220,2,220,0.00
2013-8-22,140.2,71.6,30.0,61.8,57.4,-59.6,70,61,1,29.97,24.00,47,3,47,0.00
2013-8-23,100.6,74.4,30.0,59.2,46.2,-59.6,66,41,1,30.00,26.00,63,2,195,0.00
2013-8-24,86.7,68.4,55.9,45.8,35.2,-59.6,57,35,5,30.24,29.94,10,2,42,0.00
2013-8-25,87.1,67.8,30.5,46.5,34.0,-59.6,57,35,1,30.27,30.03,15,2,231,0.00
2013-8-26,81.1,69.7,30.0,58.2,48.6,-59.6,69,49,1,30.09,29.00,40,3,40,0.00
2013-8-27,89.8,74.5,30.0,61.5,57.4,-59.6,70,57,1,29.80,29.00,14,3,79,0.00
2013-8-28,88.9,73.9,67.4,61.6,56.5,-59.6,66,55,37,29.80,29.68,15,2,148,0.00
2013-8-29,111.5,69.8,30.0,99.9,51.3,-59.6,63,52,1,29.94,24.90,67,3,197,0.00
2013-8-30,134.6,68.4,30.0,58.5,50.5,-64.9,69,54,1,29.94,20.40,177,3,227,0.00
2013-8-31,82.6,73.2,69.4,62.3,59.4,-59.6,69,62,1,29.77,29.65,14,4,15,0.00
2013-9-1,81.1,74.6,30.0,65.1,60.9,-59.6,69,63,1,29.77,22.71,13,3,13,0.00
2013-9-2,79.7,73.8,71.0,67.0,61.9,-57.3,74,67,52,29.74,29.53,11,3,11,0.00
2013-9-3,81.5,71.1,30.0,62.4,56.5,-59.6,75,61,1,29.74,29.00,36,2,13,0.00
2013-9-4,84.4,68.5,57.5,48.4,44.2,-59.6,62,44,18,29.83,29.65,14,2,21,0.00
2013-9-5,82.6,64.7,30.0,49.9,38.9,-59.6,61,42,1,30.03,21.80,101,2,162,0.00
2013-9-6,117.7,58.9,30.0,38.0,26.0,-69.9,56,35,1,30.12,21.40,40,2,95,0.00
2013-9-7,89.8,61.9,30.0,47.2,33.2,-62.7,57,38,1,30.03,29.00,25,3,161,0.00
2013-9-8,83.1,68.3,50.3,50.1,38.8,-59.6,62,37,10,29.97,29.00,65,2,152,0.00
2013-9-9,74.5,57.6,43.0,42.8,28.6,-59.6,65,37,1,34.00,23.20,20,3,177,0.00
2013-9-10,74.8,66.8,30.0,59.9,51.2,-59.6,69,58,1,30.06,29.83,67,4,132,0.00
2013-9-11,95.2,78.6,70.1,66.2,60.5,-59.6,70,55,37,30.03,29.77,14,3,14,0.00
2013-9-12,86.2,74.0,30.0,63.3,59.1,-59.6,74,60,1,29.90,29.00,17,4,19,0.00
2013-9-13,134.2,71.8,30.0,59.0,50.4,-59.6,73,49,1,29.68,22.60,11,2,11,0.00
2013-9-14,98.4,61.3,30.0,41.0,35.5,-59.6,53,40,1,29.97,21.50,172,-1,172,0.00
2013-9-15,76.8,59.1,45.8,39.5,31.0,-59.6,55,39,10,30.06,29.00,13,2,16,0.00
2013-9-16,75.2,60.1,31.8,44.2,38.0,-59.6,58,45,1,30.12,29.00,11,2,12,0.00
2013-9-17,120.9,52.7,30.0,42.0,13.2,-91.6,46,26,1,31.01,28.90,250,3,250,0.00
2013-9-23,70.9,59.1,46.4,32.2,26.5,18.3,56,31,16,29.91,29.74,9,2,13,0.00
2013-9-24,75.7,54.7,40.8,34.1,26.1,7.0,56,37,10,29.94,29.65,12,2,21,0.00
2013-9-25,80.4,60.5,43.3,43.0,31.3,17.0,57,38,13,29.83,29.68,10,2,10,0.00
2013-9-26,75.7,60.5,48.5,39.8,34.3,24.2,55,39,19,30.00,29.77,11,2,12,0.00
2013-9-27,70.5,59.9,48.9,39.5,36.8,33.0,60,43,27,30.12,29.91,9,2,10,0.00
2013-9-28,83.5,64.6,46.9,41.5,36.2,28.1,56,38,17,30.18,30.03,13,2,13,0.00
2013-9-29,78.6,58.5,48.9,41.8,33.4,-14.7,58,44,4,30.12,29.91,12,2,12,0.00
2013-9-30,56.1,51.4,48.9,37.3,34.5,31.8,55,52,48,30.00,29.88,5,1,5,0.00
2013-12-27,43.5,32.1,25.5,6.5,0.6,-13.8,41,28,10,30.18,29.97,18,4,18,0.00
2013-12-28,52.7,35.1,22.8,18.4,6.3,-7.3,52,33,10,30.15,29.77,25,5,27,0.00
2013-12-29,46.6,38.0,29.3,33.3,21.1,8.0,69,51,37,29.97,29.18,22,4,24,0.00
2013-12-30,43.0,37.4,33.6,26.0,18.5,13.0,61,47,38,29.77,29.38,17,4,17,0.00
2013-12-31,37.6,37.6,37.6,14.3,14.3,14.3,38,38,38,29.74,29.74,6,6,6,0.00
2014-1-1,37.6,37.6,37.6,14.3,14.3,14.3,38,38,38,29.74,29.74,6,6,6,0.00
2014-1-2,37.6,37.6,37.6,14.3,14.3,14.3,38,38,38,29.74,29.74,6,6,6,0.00